Аэропорт: Николаев. Николаев

ICAO: UKON

METAR:
Информация по данной станции не доступна
METAR:
2020-08-09 17:02:00
TAF UKON 091702Z 0918/1003 01003MPS CAVOK TX27/0918Z TN20/1003Z